Home > Products > Valid Products > TAF

000
FTUS41 KBGM 311700
TAFELM
TAF
KELM 311720Z 3118/0118 VRB04KT P6SM BKN150
     FM010400 VRB02KT P6SM -SHRA OVC045
     FM011100 01004KT P6SM -SHRA OVC025=



000
FTUS41 KBGM 311700
TAFAVP
TAF
KAVP 311720Z 3118/0118 VRB05KT P6SM BKN150
     FM010600 03004KT P6SM -SHRA OVC040=



000
FTUS41 KBGM 311700
TAFSYR
TAF
KSYR 311720Z 3118/0118 11005KT P6SM BKN060 BKN150
     FM010400 07004KT P6SM -SHRA OVC045=



000
FTUS41 KBGM 311700
TAFBGM
TAF
KBGM 311720Z 3118/0118 14006KT P6SM BKN120
     FM010500 06006KT P6SM -SHRA OVC035
     FM010900 03008KT P6SM -SHRA OVC025=



000
FTUS41 KBGM 311700
TAFITH
TAF
KITH 311720Z 3118/0118 15006KT P6SM BKN150
     FM010400 VRB03KT P6SM -SHRA OVC035
     FM010900 35008KT P6SM -SHRA OVC025=



000
FTUS41 KBGM 311100
TAFAVP
TAF
KAVP 311138Z 3112/0112 VRB03KT P6SM SCT040 BKN250
     FM311800 VRB03KT P6SM OVC100
     FM010000 05003KT P6SM OVC040=



000
FTUS41 KBGM 311100
TAFSYR
TAF
KSYR 311138Z 3112/0112 14005KT P6SM SCT040 BKN120
     FM311700 13005KT P6SM OVC100
     FM010000 08005KT P6SM -SHRA OVC045=



000
FTUS41 KBGM 311100
TAFBGM
TAF
KBGM 311138Z 3112/0112 14005KT P6SM SCT040 SCT100
     FM311800 14005KT P6SM OVC080
     FM010000 08005KT P6SM OVC040=



000
FTUS41 KBGM 311100
TAFITH
TAF
KITH 311138Z 3112/0112 15005KT P6SM SCT040 BKN100
     FM311700 15005KT P6SM OVC080
     FM312300 VRB03KT P6SM OVC040=



000
FTUS41 KBGM 311100
TAFELM
TAF
KELM 311138Z 3112/0112 VRB03KT P6SM SCT045 BKN120
     FM311700 14004KT P6SM OVC080
     FM312300 VRB03KT P6SM -SHRA OVC045=



000
FTUS41 KBGM 310800 AAA
TAFAVP
TAF AMD
KAVP 310855Z 3109/0106 11004KT P6SM SCT040
     FM311200 VRB03KT P6SM SCT040 BKN250
     FM311900 VRB03KT P6SM OVC100
     FM010000 05003KT P6SM OVC045=



000
FTUS41 KBGM 310800 AAA
TAFBGM
TAF AMD
KBGM 310855Z 3109/0106 VRB03KT P6SM BKN035
     FM311400 14005KT P6SM SCT035 SCT100
     FM311900 14005KT P6SM OVC080
     FM010000 08005KT P6SM OVC040=



000
FTUS41 KBGM 310800 AAA
TAFITH
TAF AMD
KITH 310855Z 3109/0106 10003KT P6SM BKN040
     FM311400 15005KT P6SM SCT045 SCT100
     FM311800 15005KT P6SM OVC080
     FM312300 10003KT P6SM OVC040=



000
FTUS41 KBGM 310800 AAA
TAFSYR
TAF AMD
KSYR 310855Z 3109/0106 VRB03KT P6SM BKN040
     FM311400 14005KT P6SM SCT040 SCT120
     FM311800 13005KT P6SM OVC100
     FM312300 10004KT P6SM -SHRA OVC040=



000
FTUS41 KBGM 310800 AAA
TAFELM
TAF AMD
KELM 310855Z 3109/0106 VRB03KT P6SM BKN040
     FM311300 VRB03KT P6SM SCT040 SCT120
     FM311700 14004KT P6SM OVC080
     FM312200 VRB03KT P6SM -SHRA OVC040=



000
FTUS41 KBGM 310500
TAFITH
TAF
KITH 310533Z 3106/0106 VRB03KT P6SM BKN035
     FM311400 15005KT P6SM SCT035 SCT100
     FM311800 15005KT P6SM OVC080
     FM312300 10003KT P6SM OVC040=



000
FTUS41 KBGM 310500
TAFSYR
TAF
KSYR 310533Z 3106/0106 VRB03KT P6SM BKN040
     FM311400 14005KT P6SM SCT040 SCT120
     FM311800 13005KT P6SM OVC100
     FM312300 10004KT P6SM -SHRA OVC040=



000
FTUS41 KBGM 310500
TAFELM
TAF
KELM 310533Z 3106/0106 VRB03KT P6SM BKN040
     FM311300 VRB03KT P6SM SCT040 SCT120
     FM311700 14004KT P6SM OVC080
     FM312200 VRB03KT P6SM -SHRA OVC040=



000
FTUS41 KBGM 310500
TAFBGM
TAF
KBGM 310533Z 3106/0106 VRB03KT P6SM BKN035
     FM311400 14005KT P6SM SCT035 SCT100
     FM311900 14005KT P6SM OVC080
     FM010000 08005KT P6SM OVC040=



000
FTUS41 KBGM 310500
TAFAVP
TAF
KAVP 310533Z 3106/0106 11004KT P6SM SCT040
     FM311200 VRB03KT P6SM SCT040 BKN250
     FM311900 VRB03KT P6SM OVC100
     FM010000 05003KT P6SM OVC045=



000
FTUS41 KBGM 310200 AAA
TAFSYR
TAF AMD
KSYR 310202Z 3102/3124 00000KT P6SM SCT025 BKN050
      TEMPO 3102/3106 BKN025
     FM310600 VRB03KT P6SM SCT030 BKN200
     FM311300 15005KT P6SM SCT045 OVC150
     FM311900 15007KT P6SM OVC100
     FM312200 10005KT P6SM -SHRA OVC060=



000
FTUS41 KBGM 310100 AAA
TAFELM
TAF AMD
KELM 310126Z 3101/3124 00000KT P6SM SCT035
     FM310700 00000KT P6SM BKN200
     FM311300 VRB03KT P6SM BKN150
     FM311900 17004KT P6SM OVC100
     FM312200 15003KT P6SM OVC050=



000
FTUS41 KBGM 310100 AAA
TAFBGM
TAF AMD
KBGM 310125Z 3101/3124 02003KT P6SM SCT050
     FM310700 VRB03KT P6SM BKN035
     FM311300 16006KT P6SM SCT035 OVC150
     FM312000 14007KT P6SM OVC120=



000
FTUS41 KBGM 310100 AAA
TAFITH
TAF AMD
KITH 310124Z 3101/3124 00000KT P6SM SCT035
     FM310600 VRB03KT P6SM BKN035
     FM311400 16007KT P6SM BKN050 OVC200
     FM312000 15004KT P6SM OVC100=



000
FTUS41 KBGM 302300
TAFBGM
TAF
KBGM 302321Z 3100/3124 35005KT P6SM OVC040
     FM310500 VRB03KT P6SM BKN035
     FM311300 16006KT P6SM SCT035 OVC150
     FM312000 14007KT P6SM OVC120=



000
FTUS41 KBGM 302300
TAFSYR
TAF
KSYR 302321Z 3100/3124 27004KT P6SM BKN045 BKN210
     FM310300 VRB03KT P6SM SCT030 BKN200
     FM311300 15005KT P6SM SCT045 OVC150
     FM311900 15007KT P6SM OVC100
     FM312200 10005KT P6SM -SHRA OVC060=



000
FTUS41 KBGM 302300
TAFAVP
TAF
KAVP 302321Z 3100/3124 30005KT P6SM OVC045
     FM310200 VRB03KT P6SM SCT040 BKN250
     FM311200 00000KT P6SM BKN250
     FM311800 VRB03KT P6SM OVC150
     FM312200 VRB03KT P6SM OVC040=



000
FTUS41 KBGM 302300
TAFELM
TAF
KELM 302321Z 3100/3124 00000KT P6SM OVC050
     FM310300 00000KT P6SM SCT040 OVC150
     FM311300 VRB03KT P6SM BKN150
     FM311900 17004KT P6SM OVC100
     FM312200 15003KT P6SM OVC050=



000
FTUS41 KBGM 302300
TAFITH
TAF
KITH 302321Z 3100/3124 00000KT P6SM OVC045
     FM310300 VRB03KT P6SM BKN035
     FM311100 16003KT P6SM OVC025
     FM311400 16007KT P6SM BKN050 OVC200
     FM312000 15004KT P6SM OVC100=



000
FTUS41 KBGM 302100 AAA
TAFBGM
TAF AMD
KBGM 302121Z 3021/3118 32007KT P6SM SCT025 BKN040
      TEMPO 3022/3024 BKN025
     FM310500 VRB03KT P6SM BKN035
     FM311300 16010KT P6SM SCT035 OVC080=



000
FTUS41 KBGM 302100 AAB
TAFITH
TAF AMD
KITH 302119Z 3021/3118 32005KT P6SM OVC040
     FM310300 VRB03KT P6SM BKN035
     FM311300 16010KT P6SM SCT035 OVC080=



000
FTUS41 KBGM 301900 AAA
TAFSYR
TAF AMD
KSYR 301926Z 3019/3118 30012G18KT P6SM SCT025 OVC045
      TEMPO 3019/3020 3SM -SHRA BR OVC025
     FM310200 VRB03KT P6SM BKN040
     FM311300 15010KT P6SM SCT045 OVC100=



000
FTUS41 KBGM 301800 AAA
TAFBGM
TAF AMD
KBGM 301845Z 3019/3118 31010KT P6SM SCT025 OVC035
      TEMPO 3019/3023 OVC025
     FM310500 VRB03KT P6SM BKN035
     FM311300 16010KT P6SM SCT035 OVC080=



000
FTUS41 KBGM 301800 AAA
TAFITH
TAF AMD
KITH 301844Z 3019/3118 32010KT P6SM SCT025 OVC035
      TEMPO 3019/3023 OVC025
     FM310300 VRB03KT P6SM BKN035
     FM311300 16010KT P6SM SCT035 OVC080=



000
FTUS41 KBGM 301700
TAFAVP
TAF
KAVP 301721Z 3018/3118 32008KT P6SM OVC040
     FM310200 VRB03KT P6SM SCT040 BKN150
     FM311400 14005KT P6SM SCT045 OVC100=



000
FTUS41 KBGM 301700
TAFBGM
TAF
KBGM 301721Z 3018/3118 31010KT P6SM SCT025 OVC035
      TEMPO 3018/3021 OVC025
     FM310500 VRB03KT P6SM BKN035
     FM311300 16010KT P6SM SCT035 OVC080=



000
FTUS41 KBGM 301700
TAFITH
TAF
KITH 301721Z 3018/3118 32010KT P6SM SCT025 OVC035
     FM310300 VRB03KT P6SM BKN035
     FM311300 16010KT P6SM SCT035 OVC080=



000
FTUS41 KBGM 301700
TAFSYR
TAF
KSYR 301721Z 3018/3118 31010KT P6SM OVC040
     FM310300 VRB03KT P6SM BKN040
     FM311300 15010KT P6SM SCT045 OVC100=



000
FTUS41 KBGM 301700
TAFELM
TAF
KELM 301721Z 3018/3118 29008KT P6SM OVC040
     FM310200 00000KT P6SM SCT040 OVC150
     FM311200 16005KT P6SM BKN040=



000
FTUS41 KBGM 301300 AAA
TAFSYR
TAF AMD
KSYR 301334Z 3014/3112 28008KT P6SM SCT025 OVC035
      TEMPO 3014/3015 OVC025
     FM301800 31008KT P6SM OVC035
     FM310000 VRB03KT P6SM BKN040=



000
FTUS41 KBGM 301100
TAFAVP
TAF
KAVP 301120Z 3012/3112 VRB03KT P6SM OVC060
     FM301500 32005KT P6SM SCT025 BKN040
     FM301800 32008KT P6SM BKN040
     FM310000 VRB03KT P6SM SCT050=



000
FTUS41 KBGM 301100
TAFITH
TAF
KITH 301120Z 3012/3112 30008KT P6SM SCT015 OVC025
     FM301800 32008KT P6SM OVC025
     FM302200 VRB03KT P6SM BKN040=



000
FTUS41 KBGM 301100
TAFELM
TAF
KELM 301120Z 3012/3112 29005KT P6SM SCT025 OVC035
     FM301800 32007KT P6SM BKN035
     FM302200 VRB03KT P6SM BKN050=



000
FTUS41 KBGM 301100
TAFSYR
TAF
KSYR 301120Z 3012/3112 28008KT P6SM -SHRA SCT015 OVC025
     FM301800 31008KT P6SM OVC035
     FM310000 VRB03KT P6SM BKN040=



000
FTUS41 KBGM 301100
TAFBGM
TAF
KBGM 301120Z 3012/3112 30008KT P6SM SCT015 OVC025
     FM301800 32008KT P6SM BKN025
     FM302200 VRB03KT P6SM BKN040=



000
FTUS41 KBGM 300900 AAA
TAFSYR
TAF AMD
KSYR 300901Z 3009/3106 29008KT P6SM OVC025
      TEMPO 3011/3014 -SHRA OVC015
     FM301800 31008KT P6SM OVC035
     FM310000 VRB03KT P6SM BKN035=



000
FTUS41 KBGM 300900 AAA
TAFITH
TAF AMD
KITH 300901Z 3009/3106 30008KT P6SM SCT015 OVC025
     FM301800 32008KT P6SM OVC025
     FM302200 VRB03KT P6SM BKN040=



000
FTUS41 KBGM 300900 AAA
TAFELM
TAF AMD
KELM 300901Z 3009/3106 29004KT P6SM OVC040
     FM301200 29005KT P6SM OVC025
     FM301800 32007KT P6SM BKN035
     FM302200 VRB03KT P6SM BKN045=



000
FTUS41 KBGM 300900 AAA
TAFBGM
TAF AMD
KBGM 300901Z 3009/3106 30008KT P6SM SCT015 OVC025
     FM301800 32008KT P6SM OVC025
     FM302200 VRB03KT P6SM BKN040=



000
FTUS41 KBGM 300900 AAA
TAFAVP
TAF AMD
KAVP 300901Z 3009/3106 VRB03KT P6SM OVC040
     FM301200 32007KT P6SM BKN025 OVC040
     FM301800 32007KT P6SM BKN040
     FM310000 VRB03KT P6SM SCT050=



000
FTUS41 KBGM 300500
TAFSYR
TAF
KSYR 300537Z 3006/3106 26010KT P6SM OVC040
     FM300900 29008KT P6SM OVC025
      TEMPO 3010/3014 -SHRA OVC015
     FM301800 31008KT P6SM OVC035
     FM310000 VRB03KT P6SM BKN035=



000
FTUS41 KBGM 300500
TAFBGM
TAF
KBGM 300537Z 3006/3106 30007KT P6SM OVC025
     FM300900 30007KT P6SM OVC015
     FM301800 32008KT P6SM OVC025
     FM302200 VRB03KT P6SM BKN040=



000
FTUS41 KBGM 300500
TAFELM
TAF
KELM 300537Z 3006/3106 29004KT P6SM OVC040
     FM301000 29005KT P6SM OVC025
     FM301800 32007KT P6SM BKN035
     FM302200 VRB03KT P6SM BKN045=



000
FTUS41 KBGM 300500
TAFITH
TAF
KITH 300537Z 3006/3106 29008KT P6SM BKN025 OVC040
     FM300900 30008KT P6SM OVC015
     FM301800 32008KT P6SM OVC025
     FM302200 VRB03KT P6SM BKN040=



000
FTUS41 KBGM 300500
TAFAVP
TAF
KAVP 300537Z 3006/3106 VRB03KT P6SM OVC040
     FM301200 32007KT P6SM BKN025 OVC040
     FM301800 32007KT P6SM BKN040
     FM310000 VRB03KT P6SM SCT050=



000
FTUS41 KBGM 300200 AAA
TAFELM
TAF AMD
KELM 300246Z 3003/3024 VRB03KT P6SM OVC050
     FM300800 VRB03KT P6SM BKN020 OVC035
     FM301400 32006KT P6SM BKN040=



000
FTUS41 KBGM 300200 AAA
TAFBGM
TAF AMD
KBGM 300244Z 3003/3024 29006KT P6SM OVC045
     FM300600 30008KT P6SM OVC015
     FM301500 32010KT P6SM BKN030=



000
FTUS41 KBGM 300200 AAA
TAFSYR
TAF AMD
KSYR 300239Z 3003/3024 26010KT P6SM OVC050
     FM300700 28006KT P6SM OVC020
     FM301500 31008KT P6SM BKN035=



000
FTUS41 KBGM 300200 AAA
TAFITH
TAF AMD
KITH 300239Z 3003/3024 29010KT P6SM OVC050
     FM300700 31005KT P6SM OVC020
     FM301500 32008KT P6SM BKN035=



000
FTUS41 KBGM 292300
TAFSYR
TAF
KSYR 292333Z 3000/3024 25004KT P6SM OVC050
     FM300500 28006KT P6SM OVC020
     FM301500 31008KT P6SM BKN035=



000
FTUS41 KBGM 292300
TAFBGM
TAF
KBGM 292333Z 3000/3024 VRB03KT P6SM OVC045
     FM300400 30005KT P6SM OVC015
     FM301500 32008KT P6SM BKN030=



000
FTUS41 KBGM 292300
TAFITH
TAF
KITH 292333Z 3000/3024 29004KT P6SM OVC050
     FM300500 31005KT P6SM OVC020
     FM301500 32008KT P6SM BKN035=



000
FTUS41 KBGM 292300
TAFAVP
TAF
KAVP 292333Z 3000/3024 00000KT P6SM SCT060 SCT250
     FM300200 00000KT P6SM BKN060
     FM300600 32004KT P6SM OVC035
      TEMPO 3011/3015 BKN025
     FM301800 34006KT P6SM BKN040=



000
FTUS41 KBGM 292300
TAFELM
TAF
KELM 292333Z 3000/3024 25004KT P6SM OVC050
     FM300500 VRB03KT P6SM BKN020 OVC035
     FM301400 32006KT P6SM BKN040=



000
FTUS41 KBGM 291700
TAFAVP
TAF
KAVP 291737Z 2918/3018 26005KT P6SM SCT040 OVC070
      TEMPO 2918/2920 -SHRA OVC040
     FM292200 31005KT P6SM SCT040 BKN120
     FM300500 32005KT P6SM FEW025 BKN035
     FM301400 32008KT P6SM BKN045=



000
FTUS41 KBGM 291700
TAFELM
TAF
KELM 291737Z 2918/3018 27008KT P6SM BKN045
     FM300400 31005KT P6SM SCT025 BKN035
     FM301400 32008KT P6SM BKN040=



000
FTUS41 KBGM 291700
TAFBGM
TAF
KBGM 291737Z 2918/3018 27010KT P6SM FEW025 BKN040
     FM300400 31008KT P6SM SCT015 OVC025
     FM301500 32008KT P6SM SCT025 BKN035=



000
FTUS41 KBGM 291700
TAFITH
TAF
KITH 291737Z 2918/3018 27010KT P6SM FEW025 BKN040
     FM300400 31008KT P6SM SCT015 OVC025
     FM301500 32008KT P6SM SCT025 BKN035=



000
FTUS41 KBGM 291700
TAFSYR
TAF
KSYR 291737Z 2918/3018 29012KT P6SM FEW025 OVC035
     FM300200 31010KT P6SM -SHRA SCT015 OVC025
      TEMPO 3008/3012 OVC015
     FM301500 32008KT P6SM SCT025 BKN040=



000
FTUS41 KBGM 291400 AAA
TAFAVP
TAF AMD
KAVP 291428Z 2914/3012 25005KT P6SM -SHRA SCT035 OVC070
      TEMPO 2914/2917 4SM -SHRA BR OVC035
     FM291700 28008KT P6SM BKN050
     FM300000 VRB03KT P6SM SCT040 BKN100=



000
FTUS41 KBGM 291400 AAA
TAFBGM
TAF AMD
KBGM 291427Z 2914/3012 28012KT P6SM BKN040
     FM300000 30008KT P6SM SCT025 OVC035=



000
FTUS41 KBGM 291400 AAA
TAFELM
TAF AMD
KELM 291426Z 2914/3012 27010KT P6SM BKN045
     FM300000 27005KT P6SM BKN035=



000
FTUS41 KBGM 291100
TAFAVP
TAF
KAVP 291133Z 2912/3012 26006KT P6SM -RA OVC035
      TEMPO 2912/2916 4SM BR BKN025
     FM291800 28008KT P6SM SCT040 BKN100
     FM300000 VRB03KT P6SM BKN100=



000
FTUS41 KBGM 291100
TAFELM
TAF
KELM 291133Z 2912/3012 25008KT P6SM SCT025 BKN100
      TEMPO 2912/2915 BKN025
     FM291600 27012KT P6SM BKN040
     FM300000 27003KT P6SM BKN040=



000
FTUS41 KBGM 291100
TAFBGM
TAF
KBGM 291133Z 2912/3012 30009KT P6SM SCT025 BKN040
      TEMPO 2912/2916 4SM -SHRA BR BKN025
     FM291800 28012KT P6SM BKN040
     FM300000 30007KT P6SM BKN040=



000
FTUS41 KBGM 291100
TAFSYR
TAF
KSYR 291133Z 2912/3012 24009KT P6SM SCT025 BKN060
     FM291400 28012KT P6SM BKN040
     FM300100 27008KT P6SM BKN040
     FM300600 27008KT P6SM -SHRA BKN015=



000
FTUS41 KBGM 291100
TAFITH
TAF
KITH 291133Z 2912/3012 26006KT P6SM SCT025 BKN040
     FM291400 28011KT P6SM SCT025 BKN035
     FM300000 30005KT P6SM BKN035=



000
FTUS41 KBGM 291000 AAC
TAFELM
TAF AMD
KELM 291055Z 2911/3006 26008KT P6SM SCT025 BKN100
      TEMPO 2911/2915 BKN025
     FM291600 27012KT P6SM SCT025 BKN045
     FM300000 27003KT P6SM BKN045=



000
FTUS41 KBGM 291000 AAF
TAFBGM
TAF AMD
KBGM 291053Z 2911/3006 VRB05KT P6SM SCT009 OVC025
      TEMPO 2911/2912 -RA
     FM291200 26009KT P6SM -RA SCT025 BKN040
     FM291800 28012KT P6SM BKN040=



000
FTUS41 KBGM 291000 AAE
TAFBGM
TAF AMD
KBGM 291017Z 2910/3006 VRB05KT P6SM SCT009 OVC025
      TEMPO 2910/2912 BKN015
     FM291200 26009KT P6SM SCT025 BKN040
     FM291800 28012KT P6SM BKN040=



000
FTUS41 KBGM 290900 AAD
TAFBGM
TAF AMD
KBGM 290940Z 2910/3006 VRB05KT P6SM SCT009 OVC025
      TEMPO 2910/2912 BKN009
     FM291200 26009KT P6SM SCT025 BKN040
     FM291800 28012KT P6SM BKN040=



000
FTUS41 KBGM 290900 AAC
TAFBGM
TAF AMD
KBGM 290939Z 2910/3006 VRB05KT P6SM SCT025 OVC045
      TEMPO 2910/2912 BKN009
     FM291200 26009KT P6SM SCT025 BKN040
     FM291800 28012KT P6SM BKN040=



000
FTUS41 KBGM 290900 AAC
TAFAVP
TAF AMD
KAVP 290905Z 2909/3006 VRB03KT P6SM -SHRA SCT025 OVC045
     FM291200 26006KT 5SM -RA BR OVC035
     FM291800 28008KT P6SM SCT040 BKN100
     FM300000 VRB03KT P6SM BKN100=



000
FTUS41 KBGM 290900 AAC
TAFSYR
TAF AMD
KSYR 290901Z 2909/3006 24009KT P6SM SCT025 BKN060
     FM291400 28012KT P6SM BKN040
     FM300100 27008KT P6SM BKN040=



000
FTUS41 KBGM 290900 CCA
TAFITH
TAF COR
KITH 290900Z 2909/3006 28006KT P6SM SCT025 BKN040
     FM291400 27011KT P6SM SCT025 BKN035
     FM300000 30005KT P6SM BKN035
      AMD NOT SKED=



000
FTUS41 KBGM 290800 AAB
TAFELM
TAF AMD
KELM 290859Z 2909/3006 26008KT P6SM SCT025 BKN100
     FM291600 27012KT P6SM SCT025 BKN045
     FM300000 27003KT P6SM BKN045=



000
FTUS41 KBGM 290800 AAB
TAFBGM
TAF AMD
KBGM 290859Z 2909/3006 VRB05KT P6SM SCT025 OVC045
      TEMPO 2909/2910 BKN028
     FM291200 26009KT P6SM SCT025 BKN040
     FM291800 28012KT P6SM BKN040=



000
FTUS41 KBGM 290800 AAA
TAFITH
TAF AMD
KITH 290859Z 2909/3006 25006KT P6SM SCT025 BKN060
     FM291400 27011KT P6SM SCT025 BKN035
     FM300000 30005KT P6SM BKN035=



000
FTUS41 KBGM 290800 AAB
TAFAVP
TAF AMD
KAVP 290859Z 2909/3006 VRB03KT P6SM -SHRA SCT025 OVC045
      TEMPO 2909/2912 BKN025
     FM291200 26006KT 5SM -RA BR OVC035
     FM291800 28008KT P6SM SCT040 BKN100
     FM300000 VRB03KT P6SM BKN100=



000
FTUS41 KBGM 290800 AAB
TAFSYR
TAF AMD
KSYR 290859Z 2909/3006 26012KT P6SM SCT025 BKN060
     FM291400 28012KT P6SM BKN040
     FM300100 27008KT P6SM BKN040=



000
FTUS41 KBGM 290800 AAA
TAFAVP
TAF AMD
KAVP 290803Z 2908/3006 VRB03KT P6SM -SHRA SCT025 OVC045
      TEMPO 2908/2912 BKN025
     FM291200 26006KT 5SM -RA BR OVC025
     FM291800 28008KT P6SM SCT040 BKN100
     FM300000 VRB03KT P6SM BKN100=



000
FTUS41 KBGM 290700 AAA
TAFBGM
TAF AMD
KBGM 290759Z 2908/3006 26008KT P6SM -SHRA SCT025 OVC045
      TEMPO 2908/2910 BKN028
     FM291000 26011KT P6SM SCT025 BKN040
     FM291800 28012KT P6SM BKN040=



000
FTUS41 KBGM 290700 AAB
TAFBGM
TAF AMD
KBGM 290737Z 2908/3006 26008KT P6SM -SHRA SCT025 OVC045
      TEMPO 2908/2910 BKN018
     FM291000 26011KT P6SM SCT025 BKN040
     FM291800 28012KT P6SM BKN040=



000
FTUS41 KBGM 290600 AAA
TAFSYR
TAF AMD
KSYR 290659Z 2907/3006 26012KT P6SM SCT025 BKN060
     FM291400 28012KT P6SM BKN040
     FM300100 27008KT P6SM BKN040=



000
FTUS41 KBGM 290600 AAA
TAFBGM
TAF AMD
KBGM 290652Z 2907/3006 26008KT P6SM -SHRA SCT025 OVC045
     FM291000 26011KT P6SM SCT025 BKN040
     FM291800 28012KT P6SM BKN040=



000
FTUS41 KBGM 290600 AAA
TAFELM
TAF AMD
KELM 290642Z 2907/3006 27008KT P6SM SCT025 BKN060
     FM291600 27012KT P6SM SCT025 BKN045
     FM300000 27003KT P6SM BKN045=



000
FTUS41 KBGM 290500
TAFELM
TAF
KELM 290537Z 2906/3006 27008KT P6SM SCT025 BKN060
      TEMPO 2906/2910 -SHRA BKN025
     FM291600 27012KT P6SM SCT025 BKN045
     FM300000 27003KT P6SM BKN045=



000
FTUS41 KBGM 290500
TAFITH
TAF
KITH 290537Z 2906/3006 30008KT P6SM SCT025 BKN040
      TEMPO 2906/2907 4SM -SHRA BR BKN015
     FM290800 27006KT P6SM SCT025 BKN060
     FM291400 27011KT P6SM SCT025 BKN035
     FM300000 30005KT P6SM BKN035
      AMD NOT SKED=



000
FTUS41 KBGM 290500
TAFSYR
TAF
KSYR 290537Z 2906/3006 27010KT P6SM SCT025 BKN060
     FM291400 27012KT P6SM BKN040
     FM300100 27008KT P6SM BKN040=



000
FTUS41 KBGM 290500
TAFBGM
TAF
KBGM 290537Z 2906/3006 26008KT P6SM -SHRA SCT025 OVC045
      TEMPO 2906/2910 -SHRA BKN025
     FM291000 26011KT P6SM SCT025 BKN040
     FM291800 28012KT P6SM BKN040=



000
FTUS41 KBGM 290500
TAFAVP
TAF
KAVP 290537Z 2906/3006 VRB03KT P6SM -SHRA SCT025 OVC045
      TEMPO 2908/2912 3SM -SHRA BR OVC025
     FM291200 26006KT 5SM -RA BR OVC025
     FM291800 28008KT P6SM SCT040 BKN100
     FM300000 VRB03KT P6SM BKN100=



000
FTUS41 KBGM 290500 AAB
TAFSYR
TAF AMD
KSYR 290511Z 2905/2924 19011KT P6SM -SHRA SCT025 OVC045
      TEMPO 2905/2908 BKN025
     FM290800 26010KT P6SM SCT025 BKN060
     FM291400 27011KT P6SM BKN040=



000
FTUS41 KBGM 290500 AAC
TAFBGM
TAF AMD
KBGM 290510Z 2905/2924 20008KT P6SM -SHRA SCT025 OVC045
      TEMPO 2905/2908 BKN025
     FM290800 26010KT P6SM SCT025 BKN040=



000
FTUS41 KBGM 290300 AAB
TAFITH
TAF AMD
KITH 290345Z 2904/2924 21008KT P6SM -SHRA SCT025 OVC045
      TEMPO 2904/2905 3SM -SHRA BR OVC025
     FM290500 24008KT P6SM SCT025 BKN060
     FM291400 27011KT P6SM SCT025 OVC035
      AMD NOT SKED=



000
FTUS41 KBGM 290300 AAB
TAFELM
TAF AMD
KELM 290344Z 2904/2924 27011KT P6SM -SHRA SCT025 OVC045
     FM290500 25005KT P6SM SCT025 BKN060
     FM291300 27010KT P6SM SCT025 BKN045=



000
FTUS41 KBGM 290300 AAB
TAFBGM
TAF AMD
KBGM 290342Z 2904/2924 20008KT P6SM -SHRA SCT025 OVC045
      TEMPO 2904/2908 3SM -SHRA BR OVC025
     FM290800 26010KT P6SM SCT025 BKN040=



000
FTUS41 KBGM 290300 AAA
TAFSYR
TAF AMD
KSYR 290329Z 2903/2924 19011KT P6SM -SHRA SCT025 OVC045
      TEMPO 2903/2905 3SM -SHRA BR OVC025
     FM290500 26010KT P6SM SCT025 BKN060
     FM291400 27011KT P6SM BKN040=



000
FTUS41 KBGM 290300 AAA
TAFELM
TAF AMD
KELM 290313Z 2903/2924 27011KT P6SM -SHRA SCT025 OVC045
      TEMPO 2903/2904 5SM -SHRA BR OVC025
     FM290400 25005KT P6SM SCT025 BKN060
     FM291300 27010KT P6SM SCT025 BKN045=



000
FTUS41 KBGM 290200 AAA
TAFBGM
TAF AMD
KBGM 290235Z 2903/2924 20008KT P6SM -SHRA SCT025 OVC045
      TEMPO 2905/2908 3SM -SHRA BR OVC025
     FM290800 26010KT P6SM SCT025 BKN040=



000
FTUS41 KBGM 290100 AAA
TAFITH
TAF AMD
KITH 290110Z 2901/2924 21008KT P6SM -SHRA SCT025 OVC045
      TEMPO 2901/2904 3SM -SHRA BR OVC025
     FM290400 24008KT P6SM SCT025 BKN060
     FM291400 27011KT P6SM SCT025 OVC035
      AMD NOT SKED=



000
FTUS41 KBGM 282300
TAFAVP
TAF
KAVP 282340Z 2900/2924 22008KT P6SM BKN150
     FM290300 VRB03KT P6SM -SHRA SCT025 OVC045
      TEMPO 2908/2912 3SM -SHRA BR OVC025
     FM291200 23005KT 5SM -RA BR OVC025
     FM291800 28008KT P6SM SCT040 BKN100=



000
FTUS41 KBGM 282300
TAFSYR
TAF
KSYR 282340Z 2900/2924 19011KT P6SM -SHRA SCT025 OVC045
      TEMPO 2900/2904 3SM -SHRA BR OVC025
     FM290400 26010KT P6SM SCT025 BKN060
     FM291400 27011KT P6SM BKN040=



000
FTUS41 KBGM 282300
TAFELM
TAF
KELM 282340Z 2900/2924 21005KT P6SM -SHRA SCT025 OVC045
      TEMPO 2900/2904 5SM -SHRA BR OVC025
     FM290400 25005KT P6SM SCT025 BKN060
     FM291300 27010KT P6SM SCT025 BKN045=



000
FTUS41 KBGM 282300
TAFBGM
TAF
KBGM 282340Z 2900/2924 20008KT P6SM -SHRA SCT025 OVC045
      TEMPO 2901/2905 3SM -SHRA BR OVC025
     FM290500 26010KT P6SM SCT025 BKN040=



000
FTUS41 KBGM 282300
TAFITH
TAF
KITH 282340Z 2900/2924 21008KT P6SM -SHRA SCT025 OVC045
      TEMPO 2900/2904 3SM -SHRA BR OVC025
     FM290400 24008KT P6SM SCT025 BKN060
     FM291400 27011KT P6SM SCT025 OVC035=



    US Dept of Commerce
    National Oceanic and Atmospheric Administration
    National Weather Service
    1325 East West Highway
    Silver Spring, MD 20910
    Page Author: NWS Internet Services Team
Disclaimer
Information Quality
Credits
Glossary
Privacy Policy
Freedom of Information Act (FOIA)
About Us
Career Opportunities